sensor_id;sensor_type;location;lat;lon;timestamp;P1;durP1;ratioP1;P2;durP2;ratioP2
826;SDS011;395;48.132;11.608;2023-02-05T00:01:50;2.53;;;2.30;;
826;SDS011;395;48.132;11.608;2023-02-05T00:04:16;2.90;;;2.60;;
826;SDS011;395;48.132;11.608;2023-02-05T00:06:43;3.15;;;2.78;;
826;SDS011;395;48.132;11.608;2023-02-05T00:09:09;3.20;;;2.42;;
826;SDS011;395;48.132;11.608;2023-02-05T00:11:35;2.72;;;2.53;;
826;SDS011;395;48.132;11.608;2023-02-05T00:14:01;2.40;;;2.20;;
826;SDS011;395;48.132;11.608;2023-02-05T00:16:27;3.33;;;2.57;;
826;SDS011;395;48.132;11.608;2023-02-05T00:18:53;6.13;;;3.08;;
826;SDS011;395;48.132;11.608;2023-02-05T00:21:21;4.00;;;2.63;;
826;SDS011;395;48.132;11.608;2023-02-05T00:23:47;2.85;;;2.28;;
826;SDS011;395;48.132;11.608;2023-02-05T00:26:13;3.78;;;2.70;;
826;SDS011;395;48.132;11.608;2023-02-05T00:28:40;2.72;;;2.53;;
826;SDS011;395;48.132;11.608;2023-02-05T00:31:10;2.80;;;2.60;;
826;SDS011;395;48.132;11.608;2023-02-05T00:33:38;3.30;;;2.90;;
826;SDS011;395;48.132;11.608;2023-02-05T00:36:04;9.55;;;2.90;;
826;SDS011;395;48.132;11.608;2023-02-05T00:38:30;3.33;;;2.80;;
826;SDS011;395;48.132;11.608;2023-02-05T00:40:55;2.90;;;2.60;;
826;SDS011;395;48.132;11.608;2023-02-05T00:43:21;2.80;;;2.60;;
826;SDS011;395;48.132;11.608;2023-02-05T00:45:47;2.83;;;2.53;;
826;SDS011;395;48.132;11.608;2023-02-05T00:48:12;3.80;;;2.80;;
826;SDS011;395;48.132;11.608;2023-02-05T00:50:38;3.37;;;2.40;;
826;SDS011;395;48.132;11.608;2023-02-05T00:53:05;3.08;;;2.78;;
826;SDS011;395;48.132;11.608;2023-02-05T00:55:31;4.75;;;2.88;;
826;SDS011;395;48.132;11.608;2023-02-05T00:57:57;3.03;;;2.50;;
826;SDS011;395;48.132;11.608;2023-02-05T01:00:25;2.90;;;2.38;;
826;SDS011;395;48.132;11.608;2023-02-05T01:02:52;3.55;;;2.75;;
826;SDS011;395;48.132;11.608;2023-02-05T01:05:18;2.95;;;2.63;;
826;SDS011;395;48.132;11.608;2023-02-05T01:07:44;2.47;;;2.20;;
826;SDS011;395;48.132;11.608;2023-02-05T01:10:10;4.22;;;3.30;;
826;SDS011;395;48.132;11.608;2023-02-05T01:12:36;3.33;;;2.57;;
826;SDS011;395;48.132;11.608;2023-02-05T01:15:03;3.58;;;2.50;;
826;SDS011;395;48.132;11.608;2023-02-05T01:17:31;3.30;;;2.80;;
826;SDS011;395;48.132;11.608;2023-02-05T01:19:57;3.30;;;2.60;;
826;SDS011;395;48.132;11.608;2023-02-05T01:22:22;2.30;;;2.10;;
826;SDS011;395;48.132;11.608;2023-02-05T01:24:48;3.13;;;2.57;;
826;SDS011;395;48.132;11.608;2023-02-05T01:27:14;2.90;;;2.53;;
826;SDS011;395;48.132;11.608;2023-02-05T01:29:39;2.90;;;2.60;;
826;SDS011;395;48.132;11.608;2023-02-05T01:32:05;2.57;;;2.37;;
826;SDS011;395;48.132;11.608;2023-02-05T01:34:31;2.93;;;2.67;;
826;SDS011;395;48.132;11.608;2023-02-05T01:36:57;3.37;;;2.83;;
826;SDS011;395;48.132;11.608;2023-02-05T01:39:22;3.17;;;2.70;;
826;SDS011;395;48.132;11.608;2023-02-05T01:41:48;3.00;;;2.70;;
826;SDS011;395;48.132;11.608;2023-02-05T01:44:15;2.90;;;2.70;;
826;SDS011;395;48.132;11.608;2023-02-05T01:46:45;3.78;;;3.40;;
826;SDS011;395;48.132;11.608;2023-02-05T01:49:14;4.25;;;3.35;;
826;SDS011;395;48.132;11.608;2023-02-05T01:51:45;3.40;;;3.10;;
826;SDS011;395;48.132;11.608;2023-02-05T01:54:13;3.80;;;3.45;;
826;SDS011;395;48.132;11.608;2023-02-05T01:56:43;4.68;;;3.45;;
826;SDS011;395;48.132;11.608;2023-02-05T01:59:14;4.10;;;3.63;;
826;SDS011;395;48.132;11.608;2023-02-05T02:01:43;3.90;;;3.50;;
826;SDS011;395;48.132;11.608;2023-02-05T02:04:10;4.20;;;3.80;;
826;SDS011;395;48.132;11.608;2023-02-05T02:06:38;4.80;;;3.92;;
826;SDS011;395;48.132;11.608;2023-02-05T02:09:04;4.10;;;3.50;;
826;SDS011;395;48.132;11.608;2023-02-05T02:11:32;4.65;;;3.67;;
826;SDS011;395;48.132;11.608;2023-02-05T02:14:02;4.22;;;3.65;;
826;SDS011;395;48.132;11.608;2023-02-05T02:16:30;6.22;;;3.78;;
826;SDS011;395;48.132;11.608;2023-02-05T02:18:58;4.35;;;3.90;;
826;SDS011;395;48.132;11.608;2023-02-05T02:21:42;5.45;;;3.70;;
826;SDS011;395;48.132;11.608;2023-02-05T02:30:04;5.18;;;4.25;;
826;SDS011;395;48.132;11.608;2023-02-05T02:32:37;5.57;;;3.80;;
826;SDS011;395;48.132;11.608;2023-02-05T02:35:20;4.75;;;4.32;;
826;SDS011;395;48.132;11.608;2023-02-05T02:38:02;6.30;;;4.63;;
826;SDS011;395;48.132;11.608;2023-02-05T02:40:37;6.03;;;4.75;;
826;SDS011;395;48.132;11.608;2023-02-05T02:46:21;4.75;;;4.07;;
826;SDS011;395;48.132;11.608;2023-02-05T02:48:56;4.43;;;4.03;;
826;SDS011;395;48.132;11.608;2023-02-05T02:51:26;5.78;;;4.38;;
826;SDS011;395;48.132;11.608;2023-02-05T02:53:57;5.50;;;4.97;;
826;SDS011;395;48.132;11.608;2023-02-05T02:56:25;6.28;;;5.07;;
826;SDS011;395;48.132;11.608;2023-02-05T02:58:56;6.18;;;4.70;;
826;SDS011;395;48.132;11.608;2023-02-05T03:01:28;5.35;;;4.70;;
826;SDS011;395;48.132;11.608;2023-02-05T03:03:57;5.55;;;5.05;;
826;SDS011;395;48.132;11.608;2023-02-05T03:06:28;4.70;;;4.30;;
826;SDS011;395;48.132;11.608;2023-02-05T03:08:59;5.70;;;4.90;;
826;SDS011;395;48.132;11.608;2023-02-05T03:11:31;8.77;;;5.50;;
826;SDS011;395;48.132;11.608;2023-02-05T03:13:56;5.97;;;5.37;;
826;SDS011;395;48.132;11.608;2023-02-05T03:16:22;5.97;;;5.33;;
826;SDS011;395;48.132;11.608;2023-02-05T03:18:50;6.60;;;5.07;;
826;SDS011;395;48.132;11.608;2023-02-05T03:21:18;7.25;;;5.55;;
826;SDS011;395;48.132;11.608;2023-02-05T03:24:05;7.90;;;5.65;;
826;SDS011;395;48.132;11.608;2023-02-05T03:26:32;7.40;;;5.57;;
826;SDS011;395;48.132;11.608;2023-02-05T03:29:00;8.18;;;6.85;;
826;SDS011;395;48.132;11.608;2023-02-05T03:31:50;9.85;;;6.05;;
826;SDS011;395;48.132;11.608;2023-02-05T03:37:13;6.85;;;5.60;;
826;SDS011;395;48.132;11.608;2023-02-05T03:40:09;6.40;;;5.45;;
826;SDS011;395;48.132;11.608;2023-02-05T03:54:06;8.18;;;6.20;;
826;SDS011;395;48.132;11.608;2023-02-05T03:59:08;9.32;;;5.50;;
826;SDS011;395;48.132;11.608;2023-02-05T04:01:37;8.18;;;5.88;;
826;SDS011;395;48.132;11.608;2023-02-05T04:04:04;8.80;;;6.65;;
826;SDS011;395;48.132;11.608;2023-02-05T04:06:29;5.93;;;5.33;;
826;SDS011;395;48.132;11.608;2023-02-05T04:08:55;6.87;;;6.17;;
826;SDS011;395;48.132;11.608;2023-02-05T04:11:21;6.30;;;5.40;;
826;SDS011;395;48.132;11.608;2023-02-05T04:13:46;8.13;;;6.20;;
826;SDS011;395;48.132;11.608;2023-02-05T04:16:12;7.20;;;5.73;;
826;SDS011;395;48.132;11.608;2023-02-05T04:18:38;8.80;;;6.47;;
826;SDS011;395;48.132;11.608;2023-02-05T04:21:03;8.10;;;5.83;;
826;SDS011;395;48.132;11.608;2023-02-05T04:23:30;7.20;;;5.83;;
826;SDS011;395;48.132;11.608;2023-02-05T04:25:56;6.25;;;5.50;;
826;SDS011;395;48.132;11.608;2023-02-05T04:28:21;8.90;;;6.37;;
826;SDS011;395;48.132;11.608;2023-02-05T04:30:47;8.30;;;5.77;;
826;SDS011;395;48.132;11.608;2023-02-05T04:33:13;9.87;;;5.63;;
826;SDS011;395;48.132;11.608;2023-02-05T04:35:38;7.13;;;5.30;;
826;SDS011;395;48.132;11.608;2023-02-05T04:38:04;5.70;;;4.93;;
826;SDS011;395;48.132;11.608;2023-02-05T04:40:29;7.63;;;5.60;;
826;SDS011;395;48.132;11.608;2023-02-05T04:42:55;5.50;;;5.00;;
826;SDS011;395;48.132;11.608;2023-02-05T04:45:21;6.23;;;5.00;;
826;SDS011;395;48.132;11.608;2023-02-05T04:47:47;4.73;;;4.23;;
826;SDS011;395;48.132;11.608;2023-02-05T04:50:13;5.43;;;4.60;;
826;SDS011;395;48.132;11.608;2023-02-05T04:52:39;6.15;;;4.47;;
826;SDS011;395;48.132;11.608;2023-02-05T04:55:05;5.20;;;4.20;;
826;SDS011;395;48.132;11.608;2023-02-05T04:57:31;4.82;;;4.40;;
826;SDS011;395;48.132;11.608;2023-02-05T04:59:57;4.47;;;3.80;;
826;SDS011;395;48.132;11.608;2023-02-05T05:02:22;4.77;;;4.37;;
826;SDS011;395;48.132;11.608;2023-02-05T05:04:48;3.93;;;3.63;;
826;SDS011;395;48.132;11.608;2023-02-05T05:07:14;5.33;;;4.67;;
826;SDS011;395;48.132;11.608;2023-02-05T05:09:40;5.35;;;4.03;;
826;SDS011;395;48.132;11.608;2023-02-05T05:12:06;4.70;;;4.17;;
826;SDS011;395;48.132;11.608;2023-02-05T05:14:32;6.37;;;4.50;;
826;SDS011;395;48.132;11.608;2023-02-05T05:16:57;4.40;;;4.00;;
826;SDS011;395;48.132;11.608;2023-02-05T05:19:23;5.20;;;4.20;;
826;SDS011;395;48.132;11.608;2023-02-05T05:21:49;6.13;;;4.50;;
826;SDS011;395;48.132;11.608;2023-02-05T05:24:14;7.03;;;4.63;;
826;SDS011;395;48.132;11.608;2023-02-05T05:26:40;4.57;;;4.17;;
826;SDS011;395;48.132;11.608;2023-02-05T05:29:12;4.95;;;4.30;;
826;SDS011;395;48.132;11.608;2023-02-05T05:31:38;5.20;;;4.53;;
826;SDS011;395;48.132;11.608;2023-02-05T05:34:05;5.15;;;4.63;;
826;SDS011;395;48.132;11.608;2023-02-05T05:36:30;4.80;;;4.30;;
826;SDS011;395;48.132;11.608;2023-02-05T05:38:56;5.03;;;4.50;;
826;SDS011;395;48.132;11.608;2023-02-05T05:41:42;6.28;;;4.95;;
826;SDS011;395;48.132;11.608;2023-02-05T05:44:26;5.22;;;4.43;;
826;SDS011;395;48.132;11.608;2023-02-05T05:46:52;5.10;;;4.47;;
826;SDS011;395;48.132;11.608;2023-02-05T05:49:18;4.80;;;4.30;;
826;SDS011;395;48.132;11.608;2023-02-05T05:51:43;4.90;;;4.33;;
826;SDS011;395;48.132;11.608;2023-02-05T05:54:09;4.20;;;3.83;;
826;SDS011;395;48.132;11.608;2023-02-05T05:56:35;5.00;;;3.87;;
826;SDS011;395;48.132;11.608;2023-02-05T05:59:00;4.67;;;4.20;;
826;SDS011;395;48.132;11.608;2023-02-05T06:01:26;4.90;;;3.93;;
826;SDS011;395;48.132;11.608;2023-02-05T06:03:52;4.30;;;3.90;;
826;SDS011;395;48.132;11.608;2023-02-05T06:06:18;3.90;;;3.53;;
826;SDS011;395;48.132;11.608;2023-02-05T06:08:43;5.73;;;4.70;;
826;SDS011;395;48.132;11.608;2023-02-05T06:11:09;4.20;;;3.80;;
826;SDS011;395;48.132;11.608;2023-02-05T06:13:35;4.40;;;4.00;;
826;SDS011;395;48.132;11.608;2023-02-05T06:16:01;5.20;;;4.37;;
826;SDS011;395;48.132;11.608;2023-02-05T06:18:27;4.25;;;3.70;;
826;SDS011;395;48.132;11.608;2023-02-05T06:20:53;5.17;;;4.67;;
826;SDS011;395;48.132;11.608;2023-02-05T06:23:18;7.13;;;4.10;;
826;SDS011;395;48.132;11.608;2023-02-05T06:25:44;5.43;;;4.20;;
826;SDS011;395;48.132;11.608;2023-02-05T06:28:10;4.37;;;3.97;;
826;SDS011;395;48.132;11.608;2023-02-05T06:30:35;6.20;;;4.60;;
826;SDS011;395;48.132;11.608;2023-02-05T06:33:01;5.27;;;4.60;;
826;SDS011;395;48.132;11.608;2023-02-05T06:35:27;4.97;;;4.53;;
826;SDS011;395;48.132;11.608;2023-02-05T06:37:52;5.00;;;4.23;;
826;SDS011;395;48.132;11.608;2023-02-05T06:40:18;5.20;;;4.70;;
826;SDS011;395;48.132;11.608;2023-02-05T06:42:46;8.85;;;4.68;;
826;SDS011;395;48.132;11.608;2023-02-05T06:45:12;5.85;;;4.78;;
826;SDS011;395;48.132;11.608;2023-02-05T06:47:38;6.00;;;4.60;;
826;SDS011;395;48.132;11.608;2023-02-05T06:50:04;4.30;;;3.70;;
826;SDS011;395;48.132;11.608;2023-02-05T06:52:30;5.93;;;5.30;;
826;SDS011;395;48.132;11.608;2023-02-05T06:54:56;5.20;;;4.35;;
826;SDS011;395;48.132;11.608;2023-02-05T06:57:25;4.93;;;4.50;;
826;SDS011;395;48.132;11.608;2023-02-05T06:59:51;5.60;;;5.00;;
826;SDS011;395;48.132;11.608;2023-02-05T07:02:17;4.83;;;4.43;;
826;SDS011;395;48.132;11.608;2023-02-05T07:04:43;5.57;;;5.00;;
826;SDS011;395;48.132;11.608;2023-02-05T07:07:09;5.80;;;5.00;;
826;SDS011;395;48.132;11.608;2023-02-05T07:09:36;6.50;;;4.85;;
826;SDS011;395;48.132;11.608;2023-02-05T07:12:02;4.97;;;3.97;;
826;SDS011;395;48.132;11.608;2023-02-05T07:14:28;6.00;;;5.40;;
826;SDS011;395;48.132;11.608;2023-02-05T07:16:55;6.28;;;5.13;;
826;SDS011;395;48.132;11.608;2023-02-05T07:19:21;5.87;;;4.73;;
826;SDS011;395;48.132;11.608;2023-02-05T07:21:46;5.33;;;4.83;;
826;SDS011;395;48.132;11.608;2023-02-05T07:24:13;6.70;;;4.90;;
826;SDS011;395;48.132;11.608;2023-02-05T07:26:38;6.30;;;5.32;;
826;SDS011;395;48.132;11.608;2023-02-05T07:29:06;5.60;;;5.10;;
826;SDS011;395;48.132;11.608;2023-02-05T07:31:32;7.10;;;5.90;;
826;SDS011;395;48.132;11.608;2023-02-05T07:33:59;7.40;;;5.83;;
826;SDS011;395;48.132;11.608;2023-02-05T07:36:24;7.40;;;6.32;;
826;SDS011;395;48.132;11.608;2023-02-05T07:38:50;5.63;;;5.13;;
826;SDS011;395;48.132;11.608;2023-02-05T07:41:16;6.93;;;5.77;;
826;SDS011;395;48.132;11.608;2023-02-05T07:43:42;6.50;;;5.80;;
826;SDS011;395;48.132;11.608;2023-02-05T07:46:09;5.83;;;5.00;;
826;SDS011;395;48.132;11.608;2023-02-05T07:48:36;5.32;;;4.80;;
826;SDS011;395;48.132;11.608;2023-02-05T07:51:02;6.80;;;4.50;;
826;SDS011;395;48.132;11.608;2023-02-05T07:53:28;5.28;;;4.63;;
826;SDS011;395;48.132;11.608;2023-02-05T07:55:54;5.47;;;4.60;;
826;SDS011;395;48.132;11.608;2023-02-05T07:58:20;6.13;;;5.30;;
826;SDS011;395;48.132;11.608;2023-02-05T08:00:45;7.60;;;4.70;;
826;SDS011;395;48.132;11.608;2023-02-05T08:03:11;5.73;;;4.87;;
826;SDS011;395;48.132;11.608;2023-02-05T08:05:37;5.23;;;4.73;;
826;SDS011;395;48.132;11.608;2023-02-05T08:08:03;5.00;;;4.50;;
826;SDS011;395;48.132;11.608;2023-02-05T08:10:29;5.60;;;5.10;;
826;SDS011;395;48.132;11.608;2023-02-05T08:12:55;7.27;;;5.00;;
826;SDS011;395;48.132;11.608;2023-02-05T08:15:21;6.40;;;5.70;;
826;SDS011;395;48.132;11.608;2023-02-05T08:17:47;6.57;;;5.30;;
826;SDS011;395;48.132;11.608;2023-02-05T08:20:13;6.17;;;5.37;;
826;SDS011;395;48.132;11.608;2023-02-05T08:22:40;6.20;;;5.60;;
826;SDS011;395;48.132;11.608;2023-02-05T08:25:07;7.63;;;5.13;;
826;SDS011;395;48.132;11.608;2023-02-05T08:27:36;5.97;;;5.20;;
826;SDS011;395;48.132;11.608;2023-02-05T08:30:03;6.15;;;5.43;;
826;SDS011;395;48.132;11.608;2023-02-05T08:32:30;6.88;;;5.18;;
826;SDS011;395;48.132;11.608;2023-02-05T08:34:56;6.57;;;5.00;;
826;SDS011;395;48.132;11.608;2023-02-05T08:37:23;6.20;;;4.68;;
826;SDS011;395;48.132;11.608;2023-02-05T08:39:48;6.00;;;5.40;;
826;SDS011;395;48.132;11.608;2023-02-05T08:42:14;5.10;;;4.60;;
826;SDS011;395;48.132;11.608;2023-02-05T08:44:40;5.32;;;4.65;;
826;SDS011;395;48.132;11.608;2023-02-05T08:47:09;5.57;;;4.70;;
826;SDS011;395;48.132;11.608;2023-02-05T08:49:35;5.00;;;3.93;;
826;SDS011;395;48.132;11.608;2023-02-05T08:52:01;4.70;;;3.97;;
826;SDS011;395;48.132;11.608;2023-02-05T08:54:27;5.80;;;4.05;;
826;SDS011;395;48.132;11.608;2023-02-05T08:56:53;5.60;;;4.40;;
826;SDS011;395;48.132;11.608;2023-02-05T08:59:19;5.15;;;4.65;;
826;SDS011;395;48.132;11.608;2023-02-05T09:01:45;5.13;;;4.43;;
826;SDS011;395;48.132;11.608;2023-02-05T09:04:12;4.97;;;4.47;;
826;SDS011;395;48.132;11.608;2023-02-05T09:06:39;5.90;;;5.30;;
826;SDS011;395;48.132;11.608;2023-02-05T09:09:06;5.80;;;4.80;;
826;SDS011;395;48.132;11.608;2023-02-05T09:11:31;5.75;;;5.10;;
826;SDS011;395;48.132;11.608;2023-02-05T09:13:57;6.00;;;5.40;;
826;SDS011;395;48.132;11.608;2023-02-05T09:16:23;5.83;;;5.20;;
826;SDS011;395;48.132;11.608;2023-02-05T09:18:49;5.65;;;4.95;;
826;SDS011;395;48.132;11.608;2023-02-05T09:21:17;6.57;;;5.15;;
826;SDS011;395;48.132;11.608;2023-02-05T09:23:43;7.83;;;5.47;;
826;SDS011;395;48.132;11.608;2023-02-05T09:26:08;6.23;;;5.37;;
826;SDS011;395;48.132;11.608;2023-02-05T09:28:34;6.90;;;5.83;;
826;SDS011;395;48.132;11.608;2023-02-05T09:31:14;9.60;;;5.65;;
826;SDS011;395;48.132;11.608;2023-02-05T09:33:41;8.10;;;5.93;;
826;SDS011;395;48.132;11.608;2023-02-05T09:36:08;7.63;;;6.00;;
826;SDS011;395;48.132;11.608;2023-02-05T09:38:37;7.65;;;6.30;;
826;SDS011;395;48.132;11.608;2023-02-05T09:41:09;6.68;;;6.03;;
826;SDS011;395;48.132;11.608;2023-02-05T09:46:16;7.40;;;6.43;;
826;SDS011;395;48.132;11.608;2023-02-05T09:51:26;8.80;;;6.50;;
826;SDS011;395;48.132;11.608;2023-02-05T09:56:43;6.90;;;6.07;;
826;SDS011;395;48.132;11.608;2023-02-05T09:59:18;7.90;;;5.78;;
826;SDS011;395;48.132;11.608;2023-02-05T10:01:48;10.68;;;5.25;;
826;SDS011;395;48.132;11.608;2023-02-05T10:04:16;7.85;;;5.72;;
826;SDS011;395;48.132;11.608;2023-02-05T10:12:23;7.13;;;5.40;;
826;SDS011;395;48.132;11.608;2023-02-05T10:17:54;10.02;;;5.40;;
826;SDS011;395;48.132;11.608;2023-02-05T10:33:50;6.55;;;4.13;;
826;SDS011;395;48.132;11.608;2023-02-05T10:36:24;7.03;;;4.18;;
826;SDS011;395;48.132;11.608;2023-02-05T10:38:54;4.53;;;3.60;;
826;SDS011;395;48.132;11.608;2023-02-05T10:41:23;6.20;;;3.70;;
826;SDS011;395;48.132;11.608;2023-02-05T10:43:58;5.03;;;3.97;;
826;SDS011;395;48.132;11.608;2023-02-05T10:46:37;4.70;;;3.50;;
826;SDS011;395;48.132;11.608;2023-02-05T10:51:40;5.45;;;4.03;;
826;SDS011;395;48.132;11.608;2023-02-05T10:54:16;7.60;;;3.80;;
826;SDS011;395;48.132;11.608;2023-02-05T10:56:55;7.30;;;3.65;;
826;SDS011;395;48.132;11.608;2023-02-05T10:59:23;5.47;;;4.82;;
826;SDS011;395;48.132;11.608;2023-02-05T11:01:52;4.80;;;3.50;;
826;SDS011;395;48.132;11.608;2023-02-05T11:06:59;4.28;;;3.88;;
826;SDS011;395;48.132;11.608;2023-02-05T11:09:30;6.80;;;4.43;;
826;SDS011;395;48.132;11.608;2023-02-05T11:12:02;7.22;;;3.80;;
826;SDS011;395;48.132;11.608;2023-02-05T11:14:54;4.97;;;3.10;;
826;SDS011;395;48.132;11.608;2023-02-05T11:17:22;6.07;;;3.72;;
826;SDS011;395;48.132;11.608;2023-02-05T11:19:54;5.45;;;3.45;;
826;SDS011;395;48.132;11.608;2023-02-05T11:22:33;3.80;;;3.00;;
826;SDS011;395;48.132;11.608;2023-02-05T11:25:17;4.45;;;3.25;;
826;SDS011;395;48.132;11.608;2023-02-05T11:27:54;8.27;;;4.45;;
826;SDS011;395;48.132;11.608;2023-02-05T11:30:26;5.05;;;3.50;;
826;SDS011;395;48.132;11.608;2023-02-05T11:35:40;7.28;;;4.10;;
826;SDS011;395;48.132;11.608;2023-02-05T11:38:24;6.22;;;2.92;;
826;SDS011;395;48.132;11.608;2023-02-05T11:41:06;2.97;;;2.67;;
826;SDS011;395;48.132;11.608;2023-02-05T11:45:59;3.37;;;2.50;;
826;SDS011;395;48.132;11.608;2023-02-05T11:48:31;4.82;;;3.10;;
826;SDS011;395;48.132;11.608;2023-02-05T11:51:03;4.85;;;2.60;;
826;SDS011;395;48.132;11.608;2023-02-05T11:53:31;4.00;;;2.88;;
826;SDS011;395;48.132;11.608;2023-02-05T11:56:10;3.97;;;2.55;;
826;SDS011;395;48.132;11.608;2023-02-05T11:58:43;4.93;;;2.33;;
826;SDS011;395;48.132;11.608;2023-02-05T12:01:26;3.95;;;2.17;;
826;SDS011;395;48.132;11.608;2023-02-05T12:04:38;4.82;;;2.20;;
826;SDS011;395;48.132;11.608;2023-02-05T12:06:49;4.35;;;2.65;;
826;SDS011;395;48.132;11.608;2023-02-05T12:09:23;5.03;;;2.50;;
826;SDS011;395;48.132;11.608;2023-02-05T12:14:48;3.10;;;2.70;;
826;SDS011;395;48.132;11.608;2023-02-05T12:17:50;6.95;;;3.03;;
826;SDS011;395;48.132;11.608;2023-02-05T12:20:48;6.72;;;2.92;;
826;SDS011;395;48.132;11.608;2023-02-05T12:34:26;3.88;;;2.20;;
826;SDS011;395;48.132;11.608;2023-02-05T12:39:52;5.47;;;1.58;;
826;SDS011;395;48.132;11.608;2023-02-05T12:42:28;6.13;;;2.15;;
826;SDS011;395;48.132;11.608;2023-02-05T12:58:22;4.78;;;2.60;;
826;SDS011;395;48.132;11.608;2023-02-05T13:00:58;5.18;;;2.55;;
826;SDS011;395;48.132;11.608;2023-02-05T13:03:38;6.80;;;2.75;;
826;SDS011;395;48.132;11.608;2023-02-05T13:06:36;10.75;;;3.08;;
826;SDS011;395;48.132;11.608;2023-02-05T13:09:20;3.83;;;2.50;;
826;SDS011;395;48.132;11.608;2023-02-05T13:12:05;3.83;;;2.75;;
826;SDS011;395;48.132;11.608;2023-02-05T13:14:43;6.32;;;2.90;;
826;SDS011;395;48.132;11.608;2023-02-05T13:17:12;4.47;;;2.88;;
826;SDS011;395;48.132;11.608;2023-02-05T13:20:03;9.25;;;3.25;;
826;SDS011;395;48.132;11.608;2023-02-05T13:22:39;8.57;;;3.17;;
826;SDS011;395;48.132;11.608;2023-02-05T13:25:33;4.47;;;3.00;;
826;SDS011;395;48.132;11.608;2023-02-05T13:33:41;6.80;;;3.63;;
826;SDS011;395;48.132;11.608;2023-02-05T13:58:12;9.82;;;3.70;;
826;SDS011;395;48.132;11.608;2023-02-05T14:04:03;5.88;;;5.28;;
826;SDS011;395;48.132;11.608;2023-02-05T14:06:31;9.00;;;4.60;;
826;SDS011;395;48.132;11.608;2023-02-05T14:09:10;8.20;;;3.85;;
826;SDS011;395;48.132;11.608;2023-02-05T14:11:54;7.20;;;3.53;;
826;SDS011;395;48.132;11.608;2023-02-05T14:14:31;9.30;;;4.35;;
826;SDS011;395;48.132;11.608;2023-02-05T14:17:02;7.20;;;4.50;;
826;SDS011;395;48.132;11.608;2023-02-05T14:25:02;10.85;;;5.35;;
826;SDS011;395;48.132;11.608;2023-02-05T14:27:48;9.10;;;4.40;;
826;SDS011;395;48.132;11.608;2023-02-05T14:35:57;15.00;;;5.25;;
826;SDS011;395;48.132;11.608;2023-02-05T14:38:39;12.93;;;5.32;;
826;SDS011;395;48.132;11.608;2023-02-05T14:43:38;7.73;;;4.67;;
826;SDS011;395;48.132;11.608;2023-02-05T14:46:21;10.02;;;5.57;;
826;SDS011;395;48.132;11.608;2023-02-05T14:49:02;10.00;;;4.90;;
826;SDS011;395;48.132;11.608;2023-02-05T14:51:33;9.57;;;5.82;;
826;SDS011;395;48.132;11.608;2023-02-05T14:54:18;7.18;;;5.57;;
826;SDS011;395;48.132;11.608;2023-02-05T14:56:51;14.20;;;5.53;;
826;SDS011;395;48.132;11.608;2023-02-05T14:59:39;9.88;;;5.85;;
826;SDS011;395;48.132;11.608;2023-02-05T15:05:14;10.52;;;6.20;;
826;SDS011;395;48.132;11.608;2023-02-05T15:10:56;7.57;;;5.20;;
826;SDS011;395;48.132;11.608;2023-02-05T15:13:33;10.38;;;5.97;;
826;SDS011;395;48.132;11.608;2023-02-05T15:18:40;11.93;;;6.88;;
826;SDS011;395;48.132;11.608;2023-02-05T15:21:51;13.25;;;6.50;;
826;SDS011;395;48.132;11.608;2023-02-05T15:29:05;13.15;;;6.03;;
826;SDS011;395;48.132;11.608;2023-02-05T15:31:53;10.63;;;6.57;;
826;SDS011;395;48.132;11.608;2023-02-05T15:37:20;11.57;;;6.07;;
826;SDS011;395;48.132;11.608;2023-02-05T15:39:55;8.93;;;5.65;;
826;SDS011;395;48.132;11.608;2023-02-05T15:42:27;14.68;;;6.80;;
826;SDS011;395;48.132;11.608;2023-02-05T15:50:29;12.85;;;6.60;;
826;SDS011;395;48.132;11.608;2023-02-05T15:52:56;15.48;;;7.05;;
826;SDS011;395;48.132;11.608;2023-02-05T15:55:23;15.45;;;6.85;;
826;SDS011;395;48.132;11.608;2023-02-05T15:57:52;12.27;;;6.40;;
826;SDS011;395;48.132;11.608;2023-02-05T16:00:23;14.13;;;8.65;;
826;SDS011;395;48.132;11.608;2023-02-05T16:02:57;12.82;;;7.97;;
826;SDS011;395;48.132;11.608;2023-02-05T16:05:24;15.63;;;8.55;;
826;SDS011;395;48.132;11.608;2023-02-05T16:07:52;18.50;;;8.13;;
826;SDS011;395;48.132;11.608;2023-02-05T16:15:28;15.57;;;7.80;;
826;SDS011;395;48.132;11.608;2023-02-05T16:18:20;13.75;;;7.18;;
826;SDS011;395;48.132;11.608;2023-02-05T16:21:18;14.13;;;7.40;;
826;SDS011;395;48.132;11.608;2023-02-05T16:23:53;11.85;;;8.05;;
826;SDS011;395;48.132;11.608;2023-02-05T16:26:27;16.73;;;9.15;;
826;SDS011;395;48.132;11.608;2023-02-05T16:28:57;11.02;;;7.57;;
826;SDS011;395;48.132;11.608;2023-02-05T16:31:29;14.10;;;7.90;;
826;SDS011;395;48.132;11.608;2023-02-05T16:33:58;12.40;;;8.18;;
826;SDS011;395;48.132;11.608;2023-02-05T16:36:31;13.90;;;8.77;;
826;SDS011;395;48.132;11.608;2023-02-05T16:39:02;15.73;;;9.18;;
826;SDS011;395;48.132;11.608;2023-02-05T16:44:04;10.48;;;8.55;;
826;SDS011;395;48.132;11.608;2023-02-05T16:46:42;16.98;;;11.32;;
826;SDS011;395;48.132;11.608;2023-02-05T16:51:52;14.30;;;10.10;;
826;SDS011;395;48.132;11.608;2023-02-05T16:57:09;12.15;;;9.98;;
826;SDS011;395;48.132;11.608;2023-02-05T16:59:54;15.52;;;9.50;;
826;SDS011;395;48.132;11.608;2023-02-05T17:02:32;17.13;;;9.50;;
826;SDS011;395;48.132;11.608;2023-02-05T17:05:01;13.60;;;10.50;;
826;SDS011;395;48.132;11.608;2023-02-05T17:07:30;13.10;;;10.20;;
826;SDS011;395;48.132;11.608;2023-02-05T17:10:14;13.38;;;10.18;;
826;SDS011;395;48.132;11.608;2023-02-05T17:12:54;16.10;;;11.45;;
826;SDS011;395;48.132;11.608;2023-02-05T17:17:53;14.73;;;10.43;;
826;SDS011;395;48.132;11.608;2023-02-05T17:20:25;12.63;;;10.35;;
826;SDS011;395;48.132;11.608;2023-02-05T17:25:36;14.95;;;10.60;;
826;SDS011;395;48.132;11.608;2023-02-05T17:28:05;14.55;;;10.32;;
826;SDS011;395;48.132;11.608;2023-02-05T17:30:35;13.95;;;10.98;;
826;SDS011;395;48.132;11.608;2023-02-05T17:33:04;15.13;;;10.27;;
826;SDS011;395;48.132;11.608;2023-02-05T17:35:31;14.73;;;10.73;;
826;SDS011;395;48.132;11.608;2023-02-05T17:37:57;15.03;;;11.17;;
826;SDS011;395;48.132;11.608;2023-02-05T17:40:23;14.83;;;10.60;;
826;SDS011;395;48.132;11.608;2023-02-05T17:42:49;14.93;;;11.03;;
826;SDS011;395;48.132;11.608;2023-02-05T17:47:45;12.85;;;9.38;;
826;SDS011;395;48.132;11.608;2023-02-05T17:50:11;14.90;;;9.95;;
826;SDS011;395;48.132;11.608;2023-02-05T17:52:37;13.65;;;10.02;;
826;SDS011;395;48.132;11.608;2023-02-05T17:55:04;13.20;;;10.70;;
826;SDS011;395;48.132;11.608;2023-02-05T17:57:30;13.63;;;9.95;;
826;SDS011;395;48.132;11.608;2023-02-05T18:00:00;15.10;;;11.15;;
826;SDS011;395;48.132;11.608;2023-02-05T18:02:26;11.95;;;9.75;;
826;SDS011;395;48.132;11.608;2023-02-05T18:04:52;13.43;;;9.50;;
826;SDS011;395;48.132;11.608;2023-02-05T18:07:19;12.10;;;10.80;;
826;SDS011;395;48.132;11.608;2023-02-05T18:09:52;14.50;;;10.75;;
826;SDS011;395;48.132;11.608;2023-02-05T18:12:17;13.83;;;11.37;;
826;SDS011;395;48.132;11.608;2023-02-05T18:14:43;14.63;;;10.90;;
826;SDS011;395;48.132;11.608;2023-02-05T18:17:09;12.23;;;8.70;;
826;SDS011;395;48.132;11.608;2023-02-05T18:19:35;13.47;;;9.80;;
826;SDS011;395;48.132;11.608;2023-02-05T18:22:00;13.70;;;9.37;;
826;SDS011;395;48.132;11.608;2023-02-05T18:24:26;16.30;;;10.80;;
826;SDS011;395;48.132;11.608;2023-02-05T18:26:52;12.98;;;9.85;;
826;SDS011;395;48.132;11.608;2023-02-05T18:29:18;13.17;;;9.53;;
826;SDS011;395;48.132;11.608;2023-02-05T18:31:45;12.80;;;9.98;;
826;SDS011;395;48.132;11.608;2023-02-05T18:34:11;15.52;;;10.30;;
826;SDS011;395;48.132;11.608;2023-02-05T18:36:37;16.00;;;10.48;;
826;SDS011;395;48.132;11.608;2023-02-05T18:39:03;14.97;;;10.50;;
826;SDS011;395;48.132;11.608;2023-02-05T18:41:29;14.50;;;11.90;;
826;SDS011;395;48.132;11.608;2023-02-05T18:43:56;12.00;;;10.50;;
826;SDS011;395;48.132;11.608;2023-02-05T18:46:22;18.13;;;11.88;;